createdAt,value
2019-05-22T00:09:55.137Z,12.44
2019-05-22T00:20:02.018Z,12.42
2019-05-22T00:30:10.237Z,12.41
2019-05-22T00:40:16.996Z,12.40
2019-05-22T00:50:23.185Z,12.38
2019-05-22T01:00:34.851Z,12.37
2019-05-22T01:10:40.451Z,12.36
2019-05-22T01:20:46.797Z,12.37
2019-05-22T01:30:58.478Z,12.34
2019-05-22T01:41:12.970Z,12.29
2019-05-22T01:51:19.600Z,12.29
2019-05-22T02:01:28.525Z,12.34
2019-05-22T02:11:34.103Z,12.33
2019-05-22T02:21:38.495Z,12.31
2019-05-22T02:31:44.019Z,12.35
2019-05-22T02:41:52.101Z,12.38
2019-05-22T02:51:57.260Z,12.40
2019-05-22T03:02:04.126Z,12.40
2019-05-22T03:12:09.233Z,12.43
2019-05-22T03:22:23.808Z,12.47
2019-05-22T03:32:28.592Z,12.43
2019-05-22T03:42:34.452Z,12.50
2019-05-22T03:52:39.695Z,12.51
2019-05-22T04:02:47.681Z,12.57
2019-05-22T04:12:54.247Z,12.64
2019-05-22T04:22:59.854Z,12.71
2019-05-22T04:33:05.409Z,12.77
2019-05-22T04:43:12.901Z,12.76
2019-05-22T04:53:17.849Z,12.71
2019-05-22T05:03:22.768Z,12.74
2019-05-22T05:13:27.450Z,12.80
2019-05-22T05:23:32.379Z,12.85
2019-05-22T05:33:42.365Z,12.92
2019-05-22T05:43:47.757Z,13.02
2019-05-22T05:54:11.060Z,13.07
2019-05-22T06:04:33.577Z,13.15
2019-05-22T06:14:33.182Z,13.23
2019-05-22T06:24:49.618Z,13.27
2019-05-22T06:34:54.297Z,13.35
2019-05-22T06:44:58.747Z,13.40
2019-05-22T06:55:04.401Z,13.37
2019-05-22T07:05:10.098Z,13.31
2019-05-22T07:15:23.759Z,13.25
2019-05-22T07:25:28.651Z,13.25
2019-05-22T07:35:49.724Z,13.20
2019-05-22T07:45:40.385Z,13.18
2019-05-22T07:55:45.593Z,13.22
2019-05-22T08:05:52.498Z,13.25
2019-05-22T08:15:59.243Z,13.37
2019-05-22T08:26:04.147Z,13.52
2019-05-22T08:36:09.609Z,13.64
2019-05-22T08:46:14.656Z,13.73
2019-05-22T08:56:20.751Z,13.83
2019-05-22T09:06:25.286Z,13.92
2019-05-22T09:16:30.040Z,13.85
2019-05-22T09:26:34.642Z,13.75
2019-05-22T09:36:39.595Z,13.66
2019-05-22T09:46:44.585Z,13.74
2019-05-22T09:56:49.099Z,14.10
2019-05-22T10:06:53.864Z,14.31
2019-05-22T10:16:58.503Z,14.37
2019-05-22T10:27:05.940Z,14.32
2019-05-22T10:37:10.942Z,14.27
2019-05-22T10:47:18.652Z,14.16
2019-05-22T10:57:23.459Z,14.08
2019-05-22T11:07:29.024Z,14.03
2019-05-22T11:17:34.533Z,14.03
2019-05-22T11:27:40.484Z,14.01
2019-05-22T11:37:45.441Z,13.90
2019-05-22T11:47:50.672Z,13.84
2019-05-22T11:57:55.118Z,13.93
2019-05-22T12:08:00.234Z,14.03
2019-05-22T12:18:05.186Z,13.91
2019-05-22T12:28:10.086Z,13.80
2019-05-22T12:38:15.122Z,13.74
2019-05-22T12:48:19.990Z,13.72
2019-05-22T12:58:24.754Z,13.70
2019-05-22T13:08:31.861Z,13.61
2019-05-22T13:18:37.783Z,13.57
2019-05-22T13:28:44.489Z,13.51
2019-05-22T13:38:49.453Z,13.51
2019-05-22T13:48:54.186Z,13.54
2019-05-22T13:58:58.997Z,13.62
2019-05-22T14:09:03.857Z,13.66
2019-05-22T14:19:08.765Z,13.66
2019-05-22T14:29:13.848Z,13.66
2019-05-22T14:39:19.241Z,13.61
2019-05-22T14:49:24.164Z,13.60
2019-05-22T14:59:30.411Z,13.62
2019-05-22T15:09:35.384Z,13.54
2019-05-22T15:19:39.972Z,13.49
2019-05-22T15:29:44.745Z,13.44
2019-05-22T15:39:50.332Z,13.46
2019-05-22T15:49:54.905Z,13.50
2019-05-22T15:59:59.506Z,13.58
2019-05-22T16:10:06.256Z,13.61
2019-05-22T16:20:12.450Z,13.68
2019-05-22T16:30:18.136Z,13.74
2019-05-22T16:40:24.053Z,13.76
2019-05-22T16:50:29.039Z,13.79
2019-05-22T17:00:34.115Z,13.85
2019-05-22T17:10:40.604Z,13.81
2019-05-22T17:20:46.392Z,13.82
2019-05-22T17:30:51.804Z,13.83
2019-05-22T17:40:56.351Z,13.89
2019-05-22T17:51:01.732Z,13.94
2019-05-22T18:01:09.443Z,13.96
2019-05-22T18:11:15.613Z,13.97
2019-05-22T18:21:21.544Z,13.98
2019-05-22T18:31:29.350Z,13.97
2019-05-22T18:41:34.628Z,13.97
2019-05-22T18:51:40.968Z,13.96
2019-05-22T19:01:45.818Z,13.95
2019-05-22T19:11:51.114Z,13.93
2019-05-22T19:21:58.385Z,13.90
2019-05-22T19:32:04.047Z,13.88
2019-05-22T19:42:09.136Z,13.85
2019-05-22T19:52:14.925Z,13.88
2019-05-22T20:02:21.583Z,13.87
2019-05-22T20:12:26.773Z,13.79
2019-05-22T20:22:32.045Z,13.71
2019-05-22T20:32:37.808Z,13.61
2019-05-22T20:42:42.862Z,13.51
2019-05-22T20:52:47.813Z,13.46
2019-05-22T21:02:55.327Z,13.45
2019-05-22T21:13:01.366Z,13.43
2019-05-22T21:23:06.432Z,13.34
2019-05-22T21:33:11.185Z,13.32
2019-05-22T21:43:17.853Z,13.28
2019-05-22T21:53:22.327Z,13.24
2019-05-22T22:03:32.573Z,13.24
2019-05-22T22:13:37.611Z,13.23
2019-05-22T22:23:44.585Z,13.24
2019-05-22T22:33:52.812Z,13.22
2019-05-22T22:43:59.716Z,13.21
2019-05-22T22:54:06.618Z,13.20
2019-05-22T23:04:14.130Z,13.20
2019-05-22T23:14:20.776Z,13.16
2019-05-22T23:24:26.198Z,13.17
2019-05-22T23:34:31.184Z,13.16
2019-05-22T23:44:36.864Z,13.15
2019-05-22T23:54:41.884Z,13.16
